Sado Airport
RJSD : now visible

Airfield :











YOU CAN JOIN US ON...

 
LOGIN :

Register | Disclaimer

   EN    FR    IT 

 









Legend :    VFR   Marginal VFR   IFR   Intensive IFR   Very Intensive IFR
Visi :
Ceiling :
>= 8 km
>= 3000ft
5 to 8 km
1000 to 3000 ft
1500m to 5 km
500 to 1000 ft
800 to 1500m
200 to 500 ft
< 800m
< 200 ft
Symbols :   Thunderstorms  Fog  Heavy snow  Heavy precipitations  Wind > 20 kt







- Airport Elevation : 88 ft
- IATA code : SDS


RJSD - Sado

CURRENT METAR :
  • 230200Z AUTO 26006G16KT 180V330 9999 -RA FEW023 SCT033 BKN060 27/24 Q1004

EXPIRED METARs :
  • 230100Z AUTO 27008KT 230V300 9999 FEW021 SCT029 BKN038 //////TCU 26/24 Q1004
  • 230000Z AUTO 26010KT 220V300 9999 SCT010 BKN017 BKN019 //////CB 26/25 Q1003

TAF N/A
No reported NOTAMs for that airfield.



MET'MAP, your aeronautical weather chart ! - Copyright ORBIFLY December 2007 - Disclaimer

ORBIFLY MET'MAP TEAM :

Programming & Development : Alexandra Zaïnal
Concept & Development : Baudouin d'Aumeries
Co-Development & Prog : Marc-Olivier Méhu
Technical & hardware support : Manuel Goepfert

Contact : metmap@orbifly.com




SOURCES & CREDITS :

   NOAA       Earth
Advisory